CYXY

Whitehorse / Erik Nielsen International Airport

Whitehorse, , Canada
METAR CYXY 231000Z 32008KT 1 1/2SM -SN DRSN BKN008 OVC021 M06/M08 A2954 RMK SN4SC1SC3 SLP055
Observed Flight Rules
Feb-23 @ 10:00 UTC (25 minutes ago) Instrument Flight Rules
Wind Visibility Clouds Conditions
320° at 8 knots 1 1/2 miles
  • Broken at 800' AGL
  • Overcast at 2,100' AGL
  • Light Snow
  • Low drifting
  • Snow
Temperatures Readings
Current -6°C / 21°F
Dewpoint -8°C / 18°F
Humidity 86%
Altimeter 29.54" Hg
Pressure 1005.5 hPa
Elevation 703
METAR CYXY 231000Z 32008KT 1 1/2SM -SN DRSN BKN008 OVC021 M06/M08 A2954 RMK SN4SC1SC3 SLP055
Observed Flight Rules
Feb-23 @ 10:00 UTC
(25 minutes ago)
IFR
Wind Visibility
320° at 8 knots 1 1/2 miles
Clouds
  • Broken at 800' AGL
  • Overcast at 2,100' AGL
Conditions
  • Light Snow
  • Low drifting
  • Snow
Temperature Dewpoint
-6°C / 21°F -8°C / 18°F
Humidity Altimeter Pressure
86% 29.54" Hg 1005.5 hPa